sensor_id;sensor_type;location;lat;lon;timestamp;pressure;altitude;pressure_sealevel;temperature;humidity
22440;BME280;11387;51.612;7.210;2023-11-21T00:00:54;100101.00;;;6.46;100.00
22440;BME280;11387;51.612;7.210;2023-11-21T00:03:22;100103.69;;;6.51;100.00
22440;BME280;11387;51.612;7.210;2023-11-21T00:05:51;100099.88;;;6.52;100.00
22440;BME280;11387;51.612;7.210;2023-11-21T00:08:21;100095.25;;;6.52;100.00
22440;BME280;11387;51.612;7.210;2023-11-21T00:10:50;100093.88;;;6.55;100.00
22440;BME280;11387;51.612;7.210;2023-11-21T00:13:19;100096.03;;;6.58;100.00
22440;BME280;11387;51.612;7.210;2023-11-21T00:15:47;100102.28;;;6.58;100.00
22440;BME280;11387;51.612;7.210;2023-11-21T00:18:16;100097.09;;;6.62;100.00
22440;BME280;11387;51.612;7.210;2023-11-21T00:20:45;100102.47;;;6.67;100.00
22440;BME280;11387;51.612;7.210;2023-11-21T00:23:13;100101.09;;;6.69;100.00
22440;BME280;11387;51.612;7.210;2023-11-21T00:25:43;100110.00;;;6.75;100.00
22440;BME280;11387;51.612;7.210;2023-11-21T00:28:12;100107.00;;;6.76;100.00
22440;BME280;11387;51.612;7.210;2023-11-21T00:30:40;100114.53;;;6.85;100.00
22440;BME280;11387;51.612;7.210;2023-11-21T00:33:09;100114.84;;;6.83;100.00
22440;BME280;11387;51.612;7.210;2023-11-21T00:35:38;100117.78;;;6.87;100.00
22440;BME280;11387;51.612;7.210;2023-11-21T00:38:06;100118.03;;;6.90;100.00
22440;BME280;11387;51.612;7.210;2023-11-21T00:40:36;100129.41;;;6.97;100.00
22440;BME280;11387;51.612;7.210;2023-11-21T00:43:06;100123.16;;;6.97;100.00
22440;BME280;11387;51.612;7.210;2023-11-21T00:45:35;100119.91;;;6.95;100.00
22440;BME280;11387;51.612;7.210;2023-11-21T00:48:04;100125.91;;;6.92;100.00
22440;BME280;11387;51.612;7.210;2023-11-21T00:50:33;100116.94;;;6.91;100.00
22440;BME280;11387;51.612;7.210;2023-11-21T00:53:01;100120.22;;;6.88;100.00
22440;BME280;11387;51.612;7.210;2023-11-21T00:55:30;100115.06;;;6.87;100.00
22440;BME280;11387;51.612;7.210;2023-11-21T00:57:58;100123.47;;;6.90;100.00
22440;BME280;11387;51.612;7.210;2023-11-21T01:00:28;100114.50;;;6.90;100.00
22440;BME280;11387;51.612;7.210;2023-11-21T01:02:57;100119.09;;;6.94;100.00
22440;BME280;11387;51.612;7.210;2023-11-21T01:05:26;100119.09;;;6.94;100.00
22440;BME280;11387;51.612;7.210;2023-11-21T01:07:55;100122.84;;;6.98;100.00
22440;BME280;11387;51.612;7.210;2023-11-21T01:10:23;100127.78;;;6.96;100.00
22440;BME280;11387;51.612;7.210;2023-11-21T01:12:52;100131.81;;;6.99;100.00
22440;BME280;11387;51.612;7.210;2023-11-21T01:15:21;100133.44;;;7.00;100.00
22440;BME280;11387;51.612;7.210;2023-11-21T01:17:51;100129.34;;;7.02;100.00
22440;BME280;11387;51.612;7.210;2023-11-21T01:20:20;100143.75;;;7.03;100.00
22440;BME280;11387;51.612;7.210;2023-11-21T01:23:06;100130.44;;;7.01;100.00
22440;BME280;11387;51.612;7.210;2023-11-21T01:25:35;100132.13;;;6.97;100.00
22440;BME280;11387;51.612;7.210;2023-11-21T01:28:03;100141.94;;;6.93;100.00
22440;BME280;11387;51.612;7.210;2023-11-21T01:30:32;100145.75;;;6.92;100.00
22440;BME280;11387;51.612;7.210;2023-11-21T01:33:02;100157.25;;;6.84;100.00
22440;BME280;11387;51.612;7.210;2023-11-21T01:35:31;100148.03;;;6.80;100.00
22440;BME280;11387;51.612;7.210;2023-11-21T01:37:59;100148.56;;;6.82;100.00
22440;BME280;11387;51.612;7.210;2023-11-21T01:40:28;100143.22;;;6.72;100.00
22440;BME280;11387;51.612;7.210;2023-11-21T01:42:57;100145.47;;;6.60;100.00
22440;BME280;11387;51.612;7.210;2023-11-21T01:45:26;100161.53;;;6.56;100.00
22440;BME280;11387;51.612;7.210;2023-11-21T01:47:56;100147.97;;;6.51;100.00
22440;BME280;11387;51.612;7.210;2023-11-21T01:50:26;100154.50;;;6.50;100.00
22440;BME280;11387;51.612;7.210;2023-11-21T01:52:56;100152.09;;;6.43;100.00
22440;BME280;11387;51.612;7.210;2023-11-21T01:55:25;100149.47;;;6.38;100.00
22440;BME280;11387;51.612;7.210;2023-11-21T01:57:56;100154.41;;;6.26;100.00
22440;BME280;11387;51.612;7.210;2023-11-21T02:00:25;100149.53;;;6.23;100.00
22440;BME280;11387;51.612;7.210;2023-11-21T02:02:56;100150.88;;;6.26;100.00
22440;BME280;11387;51.612;7.210;2023-11-21T02:05:27;100157.13;;;6.26;100.00
22440;BME280;11387;51.612;7.210;2023-11-21T02:07:56;100157.66;;;6.28;100.00
22440;BME280;11387;51.612;7.210;2023-11-21T02:10:24;100161.44;;;6.32;100.00
22440;BME280;11387;51.612;7.210;2023-11-21T02:12:53;100170.38;;;6.38;100.00
22440;BME280;11387;51.612;7.210;2023-11-21T02:15:23;100176.28;;;6.45;100.00
22440;BME280;11387;51.612;7.210;2023-11-21T02:17:56;100178.47;;;6.43;100.00
22440;BME280;11387;51.612;7.210;2023-11-21T02:20:27;100176.84;;;6.42;100.00
22440;BME280;11387;51.612;7.210;2023-11-21T02:22:58;100186.44;;;6.34;100.00
22440;BME280;11387;51.612;7.210;2023-11-21T02:25:30;100191.38;;;6.22;100.00
22440;BME280;11387;51.612;7.210;2023-11-21T02:28:00;100182.72;;;6.15;100.00
22440;BME280;11387;51.612;7.210;2023-11-21T02:30:30;100186.31;;;6.11;100.00
22440;BME280;11387;51.612;7.210;2023-11-21T02:32:59;100193.13;;;6.03;100.00
22440;BME280;11387;51.612;7.210;2023-11-21T02:35:28;100188.78;;;5.97;100.00
22440;BME280;11387;51.612;7.210;2023-11-21T02:38:00;100188.00;;;5.86;100.00
22440;BME280;11387;51.612;7.210;2023-11-21T02:40:29;100196.97;;;5.82;100.00
22440;BME280;11387;51.612;7.210;2023-11-21T02:42:58;100193.19;;;5.78;100.00
22440;BME280;11387;51.612;7.210;2023-11-21T02:45:27;100198.59;;;5.83;100.00
22440;BME280;11387;51.612;7.210;2023-11-21T02:47:56;100196.69;;;5.83;100.00
22440;BME280;11387;51.612;7.210;2023-11-21T02:50:26;100193.69;;;5.85;100.00
22440;BME280;11387;51.612;7.210;2023-11-21T02:52:55;100196.09;;;6.01;100.00
22440;BME280;11387;51.612;7.210;2023-11-21T02:55:26;100198.56;;;5.98;100.00
22440;BME280;11387;51.612;7.210;2023-11-21T02:57:54;100199.91;;;6.00;100.00
22440;BME280;11387;51.612;7.210;2023-11-21T03:00:24;100199.13;;;5.95;100.00
22440;BME280;11387;51.612;7.210;2023-11-21T03:02:55;100207.81;;;5.97;100.00
22440;BME280;11387;51.612;7.210;2023-11-21T03:05:24;100211.03;;;6.09;100.00
22440;BME280;11387;51.612;7.210;2023-11-21T03:07:52;100203.41;;;6.11;100.00
22440;BME280;11387;51.612;7.210;2023-11-21T03:10:21;100216.66;;;6.18;100.00
22440;BME280;11387;51.612;7.210;2023-11-21T03:12:51;100214.75;;;6.18;100.00
22440;BME280;11387;51.612;7.210;2023-11-21T03:15:20;100220.19;;;6.18;100.00
22440;BME280;11387;51.612;7.210;2023-11-21T03:17:48;100216.91;;;6.21;100.00
22440;BME280;11387;51.612;7.210;2023-11-21T03:20:17;100214.19;;;6.26;100.00
22440;BME280;11387;51.612;7.210;2023-11-21T03:22:46;100215.28;;;6.25;100.00
22440;BME280;11387;51.612;7.210;2023-11-21T03:25:15;100206.59;;;6.23;100.00
22440;BME280;11387;51.612;7.210;2023-11-21T03:27:44;100215.00;;;6.22;100.00
22440;BME280;11387;51.612;7.210;2023-11-21T03:30:15;100215.81;;;6.22;100.00
22440;BME280;11387;51.612;7.210;2023-11-21T03:32:44;100219.63;;;6.21;100.00
22440;BME280;11387;51.612;7.210;2023-11-21T03:35:13;100225.06;;;6.21;100.00
22440;BME280;11387;51.612;7.210;2023-11-21T03:37:42;100227.22;;;6.24;100.00
22440;BME280;11387;51.612;7.210;2023-11-21T03:40:11;100229.66;;;6.26;100.00
22440;BME280;11387;51.612;7.210;2023-11-21T03:42:41;100238.63;;;6.26;100.00
22440;BME280;11387;51.612;7.210;2023-11-21T03:45:10;100235.34;;;6.29;100.00
22440;BME280;11387;51.612;7.210;2023-11-21T03:47:41;100248.38;;;6.32;100.00
22440;BME280;11387;51.612;7.210;2023-11-21T03:50:10;100256.50;;;6.37;100.00
22440;BME280;11387;51.612;7.210;2023-11-21T03:52:39;100258.34;;;6.42;100.00
22440;BME280;11387;51.612;7.210;2023-11-21T03:55:08;100259.97;;;6.43;100.00
22440;BME280;11387;51.612;7.210;2023-11-21T03:57:37;100262.44;;;6.45;100.00
22440;BME280;11387;51.612;7.210;2023-11-21T04:00:07;100265.13;;;6.45;100.00
22440;BME280;11387;51.612;7.210;2023-11-21T04:02:37;100273.00;;;6.46;100.00
22440;BME280;11387;51.612;7.210;2023-11-21T04:05:08;100266.50;;;6.47;100.00
22440;BME280;11387;51.612;7.210;2023-11-21T04:07:37;100265.66;;;6.52;100.00
22440;BME280;11387;51.612;7.210;2023-11-21T04:10:07;100269.47;;;6.51;100.00
22440;BME280;11387;51.612;7.210;2023-11-21T04:12:37;100268.94;;;6.49;100.00
22440;BME280;11387;51.612;7.210;2023-11-21T04:15:06;100265.13;;;6.45;100.00
22440;BME280;11387;51.612;7.210;2023-11-21T04:17:36;100271.16;;;6.41;100.00
22440;BME280;11387;51.612;7.210;2023-11-21T04:20:08;100276.34;;;6.38;100.00
22440;BME280;11387;51.612;7.210;2023-11-21T04:22:39;100277.16;;;6.38;100.00
22440;BME280;11387;51.612;7.210;2023-11-21T04:25:13;100271.19;;;6.36;100.00
22440;BME280;11387;51.612;7.210;2023-11-21T04:27:44;100272.56;;;6.34;100.00
22440;BME280;11387;51.612;7.210;2023-11-21T04:30:13;100270.13;;;6.32;100.00
22440;BME280;11387;51.612;7.210;2023-11-21T04:32:42;100279.34;;;6.36;100.00
22440;BME280;11387;51.612;7.210;2023-11-21T04:35:12;100274.44;;;6.38;100.00
22440;BME280;11387;51.612;7.210;2023-11-21T04:37:42;100277.69;;;6.40;100.00
22440;BME280;11387;51.612;7.210;2023-11-21T04:40:11;100281.97;;;6.47;100.00
22440;BME280;11387;51.612;7.210;2023-11-21T04:42:40;100276.81;;;6.50;100.00
22440;BME280;11387;51.612;7.210;2023-11-21T04:45:09;100282.75;;;6.57;100.00
22440;BME280;11387;51.612;7.210;2023-11-21T04:47:40;100278.03;;;6.73;100.00
22440;BME280;11387;51.612;7.210;2023-11-21T04:50:09;100282.69;;;6.67;100.00
22440;BME280;11387;51.612;7.210;2023-11-21T04:52:39;100280.25;;;6.66;100.00
22440;BME280;11387;51.612;7.210;2023-11-21T04:55:08;100290.06;;;6.62;100.00
22440;BME280;11387;51.612;7.210;2023-11-21T04:57:38;100288.44;;;6.61;100.00
22440;BME280;11387;51.612;7.210;2023-11-21T05:00:09;100293.88;;;6.61;100.00
22440;BME280;11387;51.612;7.210;2023-11-21T05:02:39;100293.09;;;6.55;100.00
22440;BME280;11387;51.612;7.210;2023-11-21T05:05:09;100295.00;;;6.50;100.00
22440;BME280;11387;51.612;7.210;2023-11-21T05:07:40;100299.66;;;6.44;100.00
22440;BME280;11387;51.612;7.210;2023-11-21T05:10:09;100295.91;;;6.35;100.00
22440;BME280;11387;51.612;7.210;2023-11-21T05:12:40;100303.81;;;6.31;100.00
22440;BME280;11387;51.612;7.210;2023-11-21T05:15:10;100302.19;;;6.25;100.00
22440;BME280;11387;51.612;7.210;2023-11-21T05:17:42;100304.66;;;6.17;100.00
22440;BME280;11387;51.612;7.210;2023-11-21T05:20:12;100303.34;;;6.09;100.00
22440;BME280;11387;51.612;7.210;2023-11-21T05:22:43;100304.44;;;6.08;100.00
22440;BME280;11387;51.612;7.210;2023-11-21T05:25:11;100316.94;;;6.04;100.00
22440;BME280;11387;51.612;7.210;2023-11-21T05:27:40;100327.28;;;5.97;100.00
22440;BME280;11387;51.612;7.210;2023-11-21T05:30:09;100325.09;;;5.99;100.00
22440;BME280;11387;51.612;7.210;2023-11-21T05:32:40;100334.88;;;6.05;100.00
22440;BME280;11387;51.612;7.210;2023-11-21T05:35:10;100334.06;;;6.04;100.00
22440;BME280;11387;51.612;7.210;2023-11-21T05:37:44;100331.88;;;5.96;100.00
22440;BME280;11387;51.612;7.210;2023-11-21T05:40:14;100343.84;;;5.95;100.00
22440;BME280;11387;51.612;7.210;2023-11-21T05:42:41;100344.38;;;5.97;100.00
22440;BME280;11387;51.612;7.210;2023-11-21T05:45:10;100342.75;;;6.01;100.00
22440;BME280;11387;51.612;7.210;2023-11-21T05:47:41;100352.25;;;6.09;100.00
22440;BME280;11387;51.612;7.210;2023-11-21T05:50:11;100358.16;;;6.16;100.00
22440;BME280;11387;51.612;7.210;2023-11-21T05:52:44;100360.34;;;6.24;100.00
22440;BME280;11387;51.612;7.210;2023-11-21T05:55:14;100365.75;;;6.24;100.00
22440;BME280;11387;51.612;7.210;2023-11-21T05:57:43;100367.94;;;6.22;100.00
22440;BME280;11387;51.612;7.210;2023-11-21T06:00:13;100377.19;;;6.21;100.00
22440;BME280;11387;51.612;7.210;2023-11-21T06:02:47;100379.06;;;6.26;100.00
22440;BME280;11387;51.612;7.210;2023-11-21T06:05:18;100382.06;;;6.29;100.00
22440;BME280;11387;51.612;7.210;2023-11-21T06:07:49;100377.72;;;6.28;100.00
22440;BME280;11387;51.612;7.210;2023-11-21T06:10:19;100389.66;;;6.32;100.00
22440;BME280;11387;51.612;7.210;2023-11-21T06:12:48;100380.41;;;6.38;100.00
22440;BME280;11387;51.612;7.210;2023-11-21T06:15:17;100382.03;;;6.39;100.00
22440;BME280;11387;51.612;7.210;2023-11-21T06:17:46;100382.56;;;6.41;100.00
22440;BME280;11387;51.612;7.210;2023-11-21T06:20:20;100389.06;;;6.46;100.00
22440;BME280;11387;51.612;7.210;2023-11-21T06:22:50;100401.56;;;6.47;100.00
22440;BME280;11387;51.612;7.210;2023-11-21T06:25:20;100395.00;;;6.53;100.00
22440;BME280;11387;51.612;7.210;2023-11-21T06:27:50;100410.22;;;6.59;100.00
22440;BME280;11387;51.612;7.210;2023-11-21T06:30:21;100421.63;;;6.61;100.00
22440;BME280;11387;51.612;7.210;2023-11-21T06:32:50;100424.88;;;6.63;100.00
22440;BME280;11387;51.612;7.210;2023-11-21T06:35:20;100425.69;;;6.68;100.00
22440;BME280;11387;51.612;7.210;2023-11-21T06:37:50;100422.09;;;6.73;100.00
22440;BME280;11387;51.612;7.210;2023-11-21T06:40:20;100423.47;;;6.75;100.00
22440;BME280;11387;51.612;7.210;2023-11-21T06:42:49;100423.19;;;6.77;100.00
22440;BME280;11387;51.612;7.210;2023-11-21T06:45:19;100429.69;;;6.81;100.00
22440;BME280;11387;51.612;7.210;2023-11-21T06:47:49;100440.31;;;6.78;100.00
22440;BME280;11387;51.612;7.210;2023-11-21T06:50:18;100428.06;;;6.80;100.00
22440;BME280;11387;51.612;7.210;2023-11-21T06:52:48;100428.88;;;6.81;100.00
22440;BME280;11387;51.612;7.210;2023-11-21T06:55:18;100443.84;;;6.83;100.00
22440;BME280;11387;51.612;7.210;2023-11-21T06:57:47;100432.41;;;6.86;100.00
22440;BME280;11387;51.612;7.210;2023-11-21T07:00:17;100445.97;;;6.91;100.00
22440;BME280;11387;51.612;7.210;2023-11-21T07:02:46;100449.22;;;6.98;100.00
22440;BME280;11387;51.612;7.210;2023-11-21T07:05:15;100452.69;;;7.09;100.00
22440;BME280;11387;51.612;7.210;2023-11-21T07:07:48;100452.38;;;7.21;100.00
22440;BME280;11387;51.612;7.210;2023-11-21T07:10:18;100462.13;;;7.27;100.00
22440;BME280;11387;51.612;7.210;2023-11-21T07:12:48;100465.66;;;7.27;100.00
22440;BME280;11387;51.612;7.210;2023-11-21T07:15:17;100465.94;;;7.31;100.00
22440;BME280;11387;51.612;7.210;2023-11-21T07:17:46;100474.63;;;7.33;100.00
22440;BME280;11387;51.612;7.210;2023-11-21T07:20:16;100464.50;;;7.38;100.00
22440;BME280;11387;51.612;7.210;2023-11-21T07:22:45;100474.53;;;7.43;100.00
22440;BME280;11387;51.612;7.210;2023-11-21T07:25:14;100472.34;;;7.45;100.00
22440;BME280;11387;51.612;7.210;2023-11-21T07:27:45;100477.25;;;7.48;100.00
22440;BME280;11387;51.612;7.210;2023-11-21T07:30:14;100470.16;;;7.52;100.00
22440;BME280;11387;51.612;7.210;2023-11-21T07:32:42;100477.22;;;7.53;100.00
22440;BME280;11387;51.612;7.210;2023-11-21T07:35:12;100482.63;;;7.58;100.00
22440;BME280;11387;51.612;7.210;2023-11-21T07:37:41;100479.34;;;7.61;100.00
22440;BME280;11387;51.612;7.210;2023-11-21T07:40:11;100482.81;;;7.67;100.00
22440;BME280;11387;51.612;7.210;2023-11-21T07:42:41;100489.31;;;7.76;100.00
22440;BME280;11387;51.612;7.210;2023-11-21T07:45:12;100489.00;;;7.83;100.00
22440;BME280;11387;51.612;7.210;2023-11-21T07:47:40;100489.25;;;7.86;100.00
22440;BME280;11387;51.612;7.210;2023-11-21T07:50:10;100493.31;;;7.89;100.00
22440;BME280;11387;51.612;7.210;2023-11-21T07:52:40;100485.69;;;7.91;100.00
22440;BME280;11387;51.612;7.210;2023-11-21T07:55:09;100491.59;;;7.98;100.00
22440;BME280;11387;51.612;7.210;2023-11-21T07:57:39;100498.66;;;7.99;100.00
22440;BME280;11387;51.612;7.210;2023-11-21T08:00:08;100494.56;;;8.01;100.00
22440;BME280;11387;51.612;7.210;2023-11-21T08:02:41;100505.41;;;8.06;100.00
22440;BME280;11387;51.612;7.210;2023-11-21T08:05:27;100512.19;;;8.14;100.00
22440;BME280;11387;51.612;7.210;2023-11-21T08:08:04;100521.84;;;8.30;100.00
22440;BME280;11387;51.612;7.210;2023-11-21T08:10:33;100529.34;;;8.49;100.00
22440;BME280;11387;51.612;7.210;2023-11-21T08:13:03;100539.50;;;8.72;100.00
22440;BME280;11387;51.612;7.210;2023-11-21T08:15:31;100549.13;;;8.88;100.00
22440;BME280;11387;51.612;7.210;2023-11-21T08:18:01;100557.78;;;8.95;100.00
22440;BME280;11387;51.612;7.210;2023-11-21T08:20:30;100558.25;;;9.02;100.00
22440;BME280;11387;51.612;7.210;2023-11-21T08:22:58;100568.66;;;9.00;100.00
22440;BME280;11387;51.612;7.210;2023-11-21T08:25:32;100573.06;;;8.96;100.00
22440;BME280;11387;51.612;7.210;2023-11-21T08:28:02;100572.53;;;8.94;100.00
22440;BME280;11387;51.612;7.210;2023-11-21T08:30:31;100570.44;;;8.86;100.00
22440;BME280;11387;51.612;7.210;2023-11-21T08:33:01;100588.53;;;8.77;100.00
22440;BME280;11387;51.612;7.210;2023-11-21T08:35:31;100589.97;;;8.69;100.00
22440;BME280;11387;51.612;7.210;2023-11-21T08:37:59;100585.66;;;8.63;100.00
22440;BME280;11387;51.612;7.210;2023-11-21T08:40:28;100592.25;;;8.57;100.00
22440;BME280;11387;51.612;7.210;2023-11-21T08:42:57;100597.91;;;8.66;100.00
22440;BME280;11387;51.612;7.210;2023-11-21T08:45:26;100603.41;;;8.61;100.00
22440;BME280;11387;51.612;7.210;2023-11-21T08:47:55;100597.38;;;8.64;100.00
22440;BME280;11387;51.612;7.210;2023-11-21T08:50:25;100590.28;;;8.63;100.00
22440;BME280;11387;51.612;7.210;2023-11-21T08:53:13;100601.44;;;8.66;100.00
22440;BME280;11387;51.612;7.210;2023-11-21T08:55:43;100596.81;;;8.67;100.00
22440;BME280;11387;51.612;7.210;2023-11-21T08:58:11;100596.75;;;8.72;100.00
22440;BME280;11387;51.612;7.210;2023-11-21T09:00:40;100600.47;;;8.86;100.00
22440;BME280;11387;51.612;7.210;2023-11-21T09:03:20;100603.22;;;8.81;100.00
22440;BME280;11387;51.612;7.210;2023-11-21T09:05:50;100602.88;;;8.88;100.00
22440;BME280;11387;51.612;7.210;2023-11-21T09:08:19;100613.94;;;9.01;100.00
22440;BME280;11387;51.612;7.210;2023-11-21T09:10:49;100607.09;;;9.28;100.00
22440;BME280;11387;51.612;7.210;2023-11-21T09:13:17;100614.94;;;9.34;100.00
22440;BME280;11387;51.612;7.210;2023-11-21T09:15:47;100623.63;;;9.41;100.00
22440;BME280;11387;51.612;7.210;2023-11-21T09:18:17;100623.25;;;9.48;100.00
22440;BME280;11387;51.612;7.210;2023-11-21T09:20:46;100622.94;;;9.50;100.00
22440;BME280;11387;51.612;7.210;2023-11-21T09:23:16;100624.94;;;9.44;100.00
22440;BME280;11387;51.612;7.210;2023-11-21T09:25:45;100631.28;;;9.39;100.00
22440;BME280;11387;51.612;7.210;2023-11-21T09:28:15;100633.81;;;9.31;100.00
22440;BME280;11387;51.612;7.210;2023-11-21T09:30:44;100638.19;;;9.32;100.00
22440;BME280;11387;51.612;7.210;2023-11-21T09:33:13;100635.34;;;9.42;100.00
22440;BME280;11387;51.612;7.210;2023-11-21T09:35:42;100637.91;;;9.33;100.00
22440;BME280;11387;51.612;7.210;2023-11-21T09:38:11;100648.00;;;9.33;100.00
22440;BME280;11387;51.612;7.210;2023-11-21T09:40:41;100648.00;;;9.33;100.00
22440;BME280;11387;51.612;7.210;2023-11-21T09:43:15;100643.59;;;9.37;100.00
22440;BME280;11387;51.612;7.210;2023-11-21T09:45:46;100646.22;;;9.47;100.00
22440;BME280;11387;51.612;7.210;2023-11-21T09:48:16;100644.34;;;9.42;100.00
22440;BME280;11387;51.612;7.210;2023-11-21T09:50:47;100648.94;;;9.47;100.00
22440;BME280;11387;51.612;7.210;2023-11-21T09:53:20;100649.28;;;9.64;100.00
22440;BME280;11387;51.612;7.210;2023-11-21T09:55:53;100653.66;;;9.84;100.00
22440;BME280;11387;51.612;7.210;2023-11-21T09:58:22;100657.31;;;10.17;100.00
22440;BME280;11387;51.612;7.210;2023-11-21T10:00:53;100659.56;;;10.53;100.00
22440;BME280;11387;51.612;7.210;2023-11-21T10:03:23;100669.25;;;10.64;100.00
22440;BME280;11387;51.612;7.210;2023-11-21T10:05:53;100665.38;;;10.84;100.00
22440;BME280;11387;51.612;7.210;2023-11-21T10:08:27;100675.44;;;11.02;100.00
22440;BME280;11387;51.612;7.210;2023-11-21T10:11:14;100672.56;;;11.26;100.00
22440;BME280;11387;51.612;7.210;2023-11-21T10:13:44;100677.59;;;11.78;100.00
22440;BME280;11387;51.612;7.210;2023-11-21T10:16:19;100678.44;;;12.87;95.86
22440;BME280;11387;51.612;7.210;2023-11-21T10:18:52;100678.25;;;14.33;87.81
22440;BME280;11387;51.612;7.210;2023-11-21T10:21:30;100668.06;;;14.77;84.07
22440;BME280;11387;51.612;7.210;2023-11-21T10:23:58;100686.22;;;14.43;81.92
22440;BME280;11387;51.612;7.210;2023-11-21T10:26:29;100682.50;;;13.82;83.69
22440;BME280;11387;51.612;7.210;2023-11-21T10:29:13;100683.53;;;13.56;85.87
22440;BME280;11387;51.612;7.210;2023-11-21T10:31:45;100680.66;;;13.30;86.93
22440;BME280;11387;51.612;7.210;2023-11-21T10:34:19;100676.75;;;13.00;87.94
22440;BME280;11387;51.612;7.210;2023-11-21T10:37:12;100684.66;;;12.57;89.88
22440;BME280;11387;51.612;7.210;2023-11-21T10:39:44;100687.94;;;12.23;92.43
22440;BME280;11387;51.612;7.210;2023-11-21T10:42:18;100693.72;;;11.94;93.71
22440;BME280;11387;51.612;7.210;2023-11-21T10:44:48;100691.25;;;11.65;95.99
22440;BME280;11387;51.612;7.210;2023-11-21T10:47:17;100688.13;;;11.44;98.15
22440;BME280;11387;51.612;7.210;2023-11-21T10:49:48;100698.34;;;11.38;99.09
22440;BME280;11387;51.612;7.210;2023-11-21T10:52:18;100703.00;;;11.24;99.49
22440;BME280;11387;51.612;7.210;2023-11-21T10:54:47;100699.97;;;11.26;99.92
22440;BME280;11387;51.612;7.210;2023-11-21T10:57:37;100704.13;;;11.23;100.00
22440;BME280;11387;51.612;7.210;2023-11-21T11:00:07;100704.16;;;11.04;100.00
22440;BME280;11387;51.612;7.210;2023-11-21T11:02:40;100710.03;;;10.98;100.00
22440;BME280;11387;51.612;7.210;2023-11-21T11:05:09;100708.84;;;10.85;100.00
22440;BME280;11387;51.612;7.210;2023-11-21T11:07:42;100712.50;;;10.62;100.00
22440;BME280;11387;51.612;7.210;2023-11-21T11:10:12;100721.50;;;10.43;100.00
22440;BME280;11387;51.612;7.210;2023-11-21T11:12:46;100723.97;;;10.26;100.00
22440;BME280;11387;51.612;7.210;2023-11-21T11:15:16;100720.50;;;10.16;100.00
22440;BME280;11387;51.612;7.210;2023-11-21T11:17:45;100718.06;;;10.14;100.00
22440;BME280;11387;51.612;7.210;2023-11-21T11:20:15;100717.00;;;10.10;100.00
22440;BME280;11387;51.612;7.210;2023-11-21T11:23:11;100722.56;;;10.05;100.00
22440;BME280;11387;51.612;7.210;2023-11-21T11:25:51;100725.41;;;9.95;100.00
22440;BME280;11387;51.612;7.210;2023-11-21T11:28:37;100729.03;;;9.90;100.00
22440;BME280;11387;51.612;7.210;2023-11-21T11:31:17;100723.03;;;9.88;100.00
22440;BME280;11387;51.612;7.210;2023-11-21T11:33:57;100734.00;;;9.83;100.00
22440;BME280;11387;51.612;7.210;2023-11-21T11:36:31;100723.31;;;9.87;100.00
22440;BME280;11387;51.612;7.210;2023-11-21T11:39:02;100725.13;;;9.96;100.00
22440;BME280;11387;51.612;7.210;2023-11-21T11:41:35;100731.59;;;10.05;100.00
22440;BME280;11387;51.612;7.210;2023-11-21T11:44:46;100726.78;;;10.16;100.00
22440;BME280;11387;51.612;7.210;2023-11-21T11:47:23;100723.00;;;10.12;100.00
22440;BME280;11387;51.612;7.210;2023-11-21T11:49:58;100727.44;;;10.08;100.00
22440;BME280;11387;51.612;7.210;2023-11-21T11:52:35;100728.31;;;10.03;100.00
22440;BME280;11387;51.612;7.210;2023-11-21T11:55:07;100730.47;;;10.06;100.00
22440;BME280;11387;51.612;7.210;2023-11-21T11:57:37;100737.06;;;10.05;100.00
22440;BME280;11387;51.612;7.210;2023-11-21T12:00:13;100736.31;;;10.19;100.00
22440;BME280;11387;51.612;7.210;2023-11-21T12:02:47;100742.75;;;10.33;100.00
22440;BME280;11387;51.612;7.210;2023-11-21T12:05:17;100749.91;;;10.29;100.00
22440;BME280;11387;51.612;7.210;2023-11-21T12:07:49;100745.97;;;10.11;100.00
22440;BME280;11387;51.612;7.210;2023-11-21T12:10:19;100757.06;;;10.01;100.00
22440;BME280;11387;51.612;7.210;2023-11-21T12:12:50;100769.81;;;9.82;100.00
22440;BME280;11387;51.612;7.210;2023-11-21T12:15:21;100757.50;;;9.60;100.00
22440;BME280;11387;51.612;7.210;2023-11-21T12:17:50;100764.09;;;9.54;100.00
22440;BME280;11387;51.612;7.210;2023-11-21T12:20:21;100766.84;;;9.54;100.00
22440;BME280;11387;51.612;7.210;2023-11-21T12:22:51;100764.31;;;9.63;100.00
22440;BME280;11387;51.612;7.210;2023-11-21T12:25:20;100766.22;;;9.62;100.00
22440;BME280;11387;51.612;7.210;2023-11-21T12:27:51;100762.84;;;9.70;100.00
22440;BME280;11387;51.612;7.210;2023-11-21T12:30:22;100769.44;;;9.69;100.00
22440;BME280;11387;51.612;7.210;2023-11-21T12:32:53;100770.78;;;9.72;100.00
22440;BME280;11387;51.612;7.210;2023-11-21T12:35:29;100774.94;;;9.88;100.00
22440;BME280;11387;51.612;7.210;2023-11-21T12:38:02;100779.72;;;9.77;100.00
22440;BME280;11387;51.612;7.210;2023-11-21T12:40:31;100784.47;;;9.67;100.00
22440;BME280;11387;51.612;7.210;2023-11-21T12:43:08;100784.56;;;9.57;100.00
22440;BME280;11387;51.612;7.210;2023-11-21T12:45:38;100796.63;;;9.51;100.00
22440;BME280;11387;51.612;7.210;2023-11-21T12:48:07;100796.06;;;9.54;100.00
22440;BME280;11387;51.612;7.210;2023-11-21T12:50:37;100792.50;;;9.53;100.00
22440;BME280;11387;51.612;7.210;2023-11-21T12:53:11;100797.44;;;9.51;100.00
22440;BME280;11387;51.612;7.210;2023-11-21T12:55:40;100803.69;;;9.57;100.00
22440;BME280;11387;51.612;7.210;2023-11-21T12:58:10;100803.44;;;9.53;100.00
22440;BME280;11387;51.612;7.210;2023-11-21T13:00:44;100803.47;;;9.48;100.00
22440;BME280;11387;51.612;7.210;2023-11-21T13:03:14;100814.75;;;9.41;100.00
22440;BME280;11387;51.612;7.210;2023-11-21T13:05:47;100818.91;;;9.34;100.00
22440;BME280;11387;51.612;7.210;2023-11-21T13:08:19;100826.03;;;9.30;100.00